sensor_id;sensor_type;location;lat;lon;timestamp;pressure;altitude;pressure_sealevel;temperature;humidity
44988;BME280;35735;52.226;21.254;2023-05-01T00:01:45;100871.41;;;4.57;94.92
44988;BME280;35735;52.226;21.254;2023-05-01T00:06:46;100882.69;;;4.47;95.14
44988;BME280;35735;52.226;21.254;2023-05-01T00:11:46;100881.37;;;4.34;95.40
44988;BME280;35735;52.226;21.254;2023-05-01T00:16:47;100885.44;;;4.22;95.80
44988;BME280;35735;52.226;21.254;2023-05-01T00:21:47;100881.53;;;4.11;95.96
44988;BME280;35735;52.226;21.254;2023-05-01T00:26:48;100874.03;;;4.01;96.41
44988;BME280;35735;52.226;21.254;2023-05-01T00:31:49;100881.66;;;3.88;96.76
44988;BME280;35735;52.226;21.254;2023-05-01T00:36:49;100882.25;;;3.80;97.15
44988;BME280;35735;52.226;21.254;2023-05-01T00:41:50;100885.59;;;3.74;97.45
44988;BME280;35735;52.226;21.254;2023-05-01T00:46:50;100895.97;;;3.65;97.52
44988;BME280;35735;52.226;21.254;2023-05-01T00:51:51;100890.19;;;3.52;97.86
44988;BME280;35735;52.226;21.254;2023-05-01T00:56:52;100888.66;;;3.35;98.15
44988;BME280;35735;52.226;21.254;2023-05-01T01:01:53;100892.91;;;3.30;98.71
44988;BME280;35735;52.226;21.254;2023-05-01T01:07:10;100905.19;;;3.25;98.90
44988;BME280;35735;52.226;21.254;2023-05-01T01:17:47;100898.28;;;3.07;99.30
44988;BME280;35735;52.226;21.254;2023-05-01T01:23:05;100901.75;;;3.05;99.43
44988;BME280;35735;52.226;21.254;2023-05-01T01:28:33;100901.19;;;2.89;99.48
44988;BME280;35735;52.226;21.254;2023-05-01T01:34:03;100901.69;;;2.81;99.80
44988;BME280;35735;52.226;21.254;2023-05-01T01:44:50;100899.53;;;2.70;100.00
44988;BME280;35735;52.226;21.254;2023-05-01T01:49:52;100899.91;;;2.80;100.00
44988;BME280;35735;52.226;21.254;2023-05-01T01:54:57;100915.41;;;2.67;100.00
44988;BME280;35735;52.226;21.254;2023-05-01T02:00:00;100913.00;;;2.51;100.00
44988;BME280;35735;52.226;21.254;2023-05-01T02:05:01;100913.44;;;2.40;100.00
44988;BME280;35735;52.226;21.254;2023-05-01T02:10:03;100914.31;;;2.39;100.00
44988;BME280;35735;52.226;21.254;2023-05-01T02:15:06;100914.44;;;2.43;100.00
44988;BME280;35735;52.226;21.254;2023-05-01T02:20:10;100913.62;;;2.22;100.00
44988;BME280;35735;52.226;21.254;2023-05-01T02:25:12;100920.19;;;2.10;100.00
44988;BME280;35735;52.226;21.254;2023-05-01T02:30:13;100924.66;;;2.11;100.00
44988;BME280;35735;52.226;21.254;2023-05-01T02:35:13;100928.56;;;1.98;100.00
44988;BME280;35735;52.226;21.254;2023-05-01T02:40:14;100919.91;;;1.82;100.00
44988;BME280;35735;52.226;21.254;2023-05-01T02:45:20;100914.59;;;1.82;100.00
44988;BME280;35735;52.226;21.254;2023-05-01T02:50:22;100921.66;;;1.82;100.00
44988;BME280;35735;52.226;21.254;2023-05-01T02:55:24;100915.94;;;1.73;100.00
44988;BME280;35735;52.226;21.254;2023-05-01T03:00:27;100919.03;;;1.62;100.00
44988;BME280;35735;52.226;21.254;2023-05-01T03:05:28;100920.38;;;1.53;100.00
44988;BME280;35735;52.226;21.254;2023-05-01T03:10:28;100924.25;;;1.40;100.00
44988;BME280;35735;52.226;21.254;2023-05-01T03:15:29;100923.94;;;1.34;100.00
44988;BME280;35735;52.226;21.254;2023-05-01T03:20:29;100922.56;;;1.42;100.00
44988;BME280;35735;52.226;21.254;2023-05-01T03:25:30;100920.59;;;1.38;100.00
44988;BME280;35735;52.226;21.254;2023-05-01T03:30:32;100918.53;;;1.31;100.00
44988;BME280;35735;52.226;21.254;2023-05-01T03:35:33;100922.16;;;1.33;100.00
44988;BME280;35735;52.226;21.254;2023-05-01T03:40:33;100917.81;;;1.35;100.00
44988;BME280;35735;52.226;21.254;2023-05-01T03:45:34;100915.16;;;1.35;100.00
44988;BME280;35735;52.226;21.254;2023-05-01T03:50:35;100912.47;;;1.35;100.00
44988;BME280;35735;52.226;21.254;2023-05-01T03:55:35;100908.13;;;1.37;100.00
44988;BME280;35735;52.226;21.254;2023-05-01T04:00:36;100909.22;;;1.61;100.00
44988;BME280;35735;52.226;21.254;2023-05-01T04:05:37;100910.03;;;1.80;100.00
44988;BME280;35735;52.226;21.254;2023-05-01T04:10:37;100905.63;;;2.01;100.00
44988;BME280;35735;52.226;21.254;2023-05-01T04:15:38;100906.06;;;2.33;100.00
44988;BME280;35735;52.226;21.254;2023-05-01T04:20:38;100907.00;;;2.56;100.00
44988;BME280;35735;52.226;21.254;2023-05-01T04:25:39;100900.25;;;2.89;100.00
44988;BME280;35735;52.226;21.254;2023-05-01T04:30:39;100895.66;;;3.31;100.00
44988;BME280;35735;52.226;21.254;2023-05-01T04:35:40;100896.38;;;3.77;100.00
44988;BME280;35735;52.226;21.254;2023-05-01T04:40:41;100899.13;;;4.32;100.00
44988;BME280;35735;52.226;21.254;2023-05-01T04:45:41;100905.28;;;4.85;100.00
44988;BME280;35735;52.226;21.254;2023-05-01T04:50:42;100895.31;;;5.40;100.00
44988;BME280;35735;52.226;21.254;2023-05-01T04:55:42;100894.37;;;6.03;100.00
44988;BME280;35735;52.226;21.254;2023-05-01T05:00:43;100890.47;;;6.62;100.00
44988;BME280;35735;52.226;21.254;2023-05-01T05:05:44;100900.59;;;7.16;99.67
44988;BME280;35735;52.226;21.254;2023-05-01T05:10:44;100894.50;;;7.68;97.68
44988;BME280;35735;52.226;21.254;2023-05-01T05:15:45;100900.66;;;8.11;95.57
44988;BME280;35735;52.226;21.254;2023-05-01T05:20:45;100897.84;;;8.55;93.72
44988;BME280;35735;52.226;21.254;2023-05-01T05:25:46;100906.56;;;8.98;92.11
44988;BME280;35735;52.226;21.254;2023-05-01T05:30:46;100889.16;;;9.37;90.72
44988;BME280;35735;52.226;21.254;2023-05-01T05:35:47;100895.63;;;9.55;88.39
44988;BME280;35735;52.226;21.254;2023-05-01T05:40:47;100902.91;;;9.65;87.38
44988;BME280;35735;52.226;21.254;2023-05-01T05:45:48;100894.25;;;9.95;85.71
44988;BME280;35735;52.226;21.254;2023-05-01T05:50:49;100897.25;;;10.25;84.92
44988;BME280;35735;52.226;21.254;2023-05-01T05:55:49;100890.47;;;10.74;83.45
44988;BME280;35735;52.226;21.254;2023-05-01T06:00:50;100894.25;;;11.07;81.83
44988;BME280;35735;52.226;21.254;2023-05-01T06:05:50;100874.63;;;11.48;80.66
44988;BME280;35735;52.226;21.254;2023-05-01T06:10:51;100884.56;;;11.60;78.68
44988;BME280;35735;52.226;21.254;2023-05-01T06:15:51;100888.31;;;12.02;77.51
44988;BME280;35735;52.226;21.254;2023-05-01T06:20:52;100899.19;;;12.33;75.49
44988;BME280;35735;52.226;21.254;2023-05-01T06:25:52;100899.16;;;12.73;74.95
44988;BME280;35735;52.226;21.254;2023-05-01T06:30:53;100904.53;;;12.98;74.46
44988;BME280;35735;52.226;21.254;2023-05-01T06:35:54;100899.00;;;13.30;73.23
44988;BME280;35735;52.226;21.254;2023-05-01T06:40:54;100901.66;;;13.58;68.13
44988;BME280;35735;52.226;21.254;2023-05-01T06:45:58;100902.44;;;13.79;65.82
44988;BME280;35735;52.226;21.254;2023-05-01T06:50:58;100897.87;;;13.88;65.79
44988;BME280;35735;52.226;21.254;2023-05-01T06:55:59;100899.53;;;14.09;65.64
44988;BME280;35735;52.226;21.254;2023-05-01T07:00:59;100902.19;;;14.17;64.34
44988;BME280;35735;52.226;21.254;2023-05-01T07:06:00;100904.03;;;14.17;65.10
44988;BME280;35735;52.226;21.254;2023-05-01T07:11:01;100902.16;;;14.23;63.64
44988;BME280;35735;52.226;21.254;2023-05-01T07:16:01;100892.09;;;14.33;64.08
44988;BME280;35735;52.226;21.254;2023-05-01T07:21:02;100887.38;;;14.61;63.91
44988;BME280;35735;52.226;21.254;2023-05-01T07:26:02;100881.06;;;14.59;63.97
44988;BME280;35735;52.226;21.254;2023-05-01T07:31:03;100880.66;;;14.98;63.05
44988;BME280;35735;52.226;21.254;2023-05-01T07:36:04;100883.06;;;15.27;61.92
44988;BME280;35735;52.226;21.254;2023-05-01T07:41:04;100881.25;;;15.26;61.10
44988;BME280;35735;52.226;21.254;2023-05-01T07:46:05;100884.69;;;15.44;60.17
44988;BME280;35735;52.226;21.254;2023-05-01T07:51:06;100881.59;;;15.70;59.88
44988;BME280;35735;52.226;21.254;2023-05-01T07:56:07;100877.66;;;15.96;58.54
44988;BME280;35735;52.226;21.254;2023-05-01T08:01:08;100874.22;;;15.81;57.13
44988;BME280;35735;52.226;21.254;2023-05-01T08:06:08;100869.50;;;15.94;57.33
44988;BME280;35735;52.226;21.254;2023-05-01T08:11:10;100872.19;;;15.97;56.71
44988;BME280;35735;52.226;21.254;2023-05-01T08:16:11;100868.75;;;15.83;55.93
44988;BME280;35735;52.226;21.254;2023-05-01T08:21:11;100861.38;;;15.92;57.25
44988;BME280;35735;52.226;21.254;2023-05-01T08:26:12;100867.22;;;16.24;57.89
44988;BME280;35735;52.226;21.254;2023-05-01T08:31:13;100861.16;;;16.61;56.96
44988;BME280;35735;52.226;21.254;2023-05-01T08:36:13;100863.34;;;16.90;56.51
44988;BME280;35735;52.226;21.254;2023-05-01T08:41:15;100858.50;;;17.06;54.39
44988;BME280;35735;52.226;21.254;2023-05-01T08:52:00;100874.88;;;17.50;54.36
44988;BME280;35735;52.226;21.254;2023-05-01T08:57:02;100874.16;;;17.82;53.08
44988;BME280;35735;52.226;21.254;2023-05-01T09:02:06;100859.72;;;17.77;51.56
44988;BME280;35735;52.226;21.254;2023-05-01T09:07:08;100856.56;;;17.56;51.86
44988;BME280;35735;52.226;21.254;2023-05-01T09:12:14;100858.75;;;17.81;51.95
44988;BME280;35735;52.226;21.254;2023-05-01T09:17:21;100873.69;;;18.04;51.59
44988;BME280;35735;52.226;21.254;2023-05-01T09:22:23;100854.63;;;18.40;51.35
44988;BME280;35735;52.226;21.254;2023-05-01T09:27:25;100856.78;;;18.25;48.25
44988;BME280;35735;52.226;21.254;2023-05-01T09:32:26;100846.72;;;18.27;48.38
44988;BME280;35735;52.226;21.254;2023-05-01T09:37:31;100835.22;;;18.49;49.15
44988;BME280;35735;52.226;21.254;2023-05-01T09:42:34;100832.88;;;18.69;49.31
44988;BME280;35735;52.226;21.254;2023-05-01T09:47:36;100828.72;;;18.89;48.03
44988;BME280;35735;52.226;21.254;2023-05-01T09:52:37;100822.72;;;18.75;46.58
44988;BME280;35735;52.226;21.254;2023-05-01T09:57:37;100820.37;;;18.59;47.06
44988;BME280;35735;52.226;21.254;2023-05-01T10:02:38;100815.44;;;18.74;47.26
44988;BME280;35735;52.226;21.254;2023-05-01T10:07:54;100814.97;;;18.92;46.70
44988;BME280;35735;52.226;21.254;2023-05-01T10:12:55;100810.63;;;18.85;45.65
44988;BME280;35735;52.226;21.254;2023-05-01T10:17:55;100806.50;;;19.01;43.78
44988;BME280;35735;52.226;21.254;2023-05-01T10:22:56;100800.97;;;19.04;43.25
44988;BME280;35735;52.226;21.254;2023-05-01T10:28:04;100802.38;;;19.18;42.26
44988;BME280;35735;52.226;21.254;2023-05-01T10:33:05;100804.62;;;19.03;39.22
44988;BME280;35735;52.226;21.254;2023-05-01T10:38:12;100790.69;;;18.80;38.76
44988;BME280;35735;52.226;21.254;2023-05-01T10:43:20;100782.78;;;18.67;39.48
44988;BME280;35735;52.226;21.254;2023-05-01T10:53:39;100778.12;;;18.38;37.34
44988;BME280;35735;52.226;21.254;2023-05-01T11:03:40;100776.00;;;18.84;35.80
44988;BME280;35735;52.226;21.254;2023-05-01T11:08:41;100762.87;;;18.97;35.62
44988;BME280;35735;52.226;21.254;2023-05-01T11:14:02;100763.84;;;18.94;37.39
44988;BME280;35735;52.226;21.254;2023-05-01T11:24:08;100751.34;;;19.17;36.88
44988;BME280;35735;52.226;21.254;2023-05-01T11:29:10;100736.50;;;19.24;37.24
44988;BME280;35735;52.226;21.254;2023-05-01T11:34:11;100729.72;;;19.07;35.91
44988;BME280;35735;52.226;21.254;2023-05-01T11:39:14;100732.56;;;19.04;37.42
44988;BME280;35735;52.226;21.254;2023-05-01T11:44:16;100725.66;;;18.91;36.48
44988;BME280;35735;52.226;21.254;2023-05-01T11:49:25;100723.69;;;18.96;36.73
44988;BME280;35735;52.226;21.254;2023-05-01T11:54:26;100709.13;;;18.94;35.21
44988;BME280;35735;52.226;21.254;2023-05-01T11:59:27;100700.66;;;19.03;37.09
44988;BME280;35735;52.226;21.254;2023-05-01T12:04:27;100693.91;;;19.15;38.28
44988;BME280;35735;52.226;21.254;2023-05-01T12:09:28;100697.75;;;19.10;36.99
44988;BME280;35735;52.226;21.254;2023-05-01T12:14:29;100692.16;;;19.13;37.07
44988;BME280;35735;52.226;21.254;2023-05-01T12:19:30;100696.69;;;19.14;36.76
44988;BME280;35735;52.226;21.254;2023-05-01T12:24:31;100691.78;;;18.95;36.57
44988;BME280;35735;52.226;21.254;2023-05-01T12:29:40;100676.28;;;18.96;35.83
44988;BME280;35735;52.226;21.254;2023-05-01T12:34:41;100671.75;;;18.95;36.45
44988;BME280;35735;52.226;21.254;2023-05-01T12:39:42;100664.34;;;18.98;35.90
44988;BME280;35735;52.226;21.254;2023-05-01T12:44:43;100659.78;;;18.99;36.33
44988;BME280;35735;52.226;21.254;2023-05-01T12:49:43;100655.72;;;18.81;36.61
44988;BME280;35735;52.226;21.254;2023-05-01T12:54:44;100663.25;;;18.73;37.08
44988;BME280;35735;52.226;21.254;2023-05-01T12:59:45;100643.19;;;18.74;38.31
44988;BME280;35735;52.226;21.254;2023-05-01T13:04:46;100642.31;;;18.73;37.56
44988;BME280;35735;52.226;21.254;2023-05-01T13:09:54;100635.78;;;18.77;37.17
44988;BME280;35735;52.226;21.254;2023-05-01T13:14:56;100632.03;;;18.83;37.59
44988;BME280;35735;52.226;21.254;2023-05-01T13:19:59;100626.59;;;18.80;36.73
44988;BME280;35735;52.226;21.254;2023-05-01T13:25:23;100612.12;;;18.76;37.56
44988;BME280;35735;52.226;21.254;2023-05-01T13:30:33;100603.97;;;18.75;37.19
44988;BME280;35735;52.226;21.254;2023-05-01T13:35:33;100600.19;;;18.49;37.05
44988;BME280;35735;52.226;21.254;2023-05-01T13:40:34;100601.41;;;18.39;37.47
44988;BME280;35735;52.226;21.254;2023-05-01T13:45:35;100589.72;;;18.33;37.57
44988;BME280;35735;52.226;21.254;2023-05-01T13:50:37;100595.34;;;18.27;36.57
44988;BME280;35735;52.226;21.254;2023-05-01T13:55:39;100591.94;;;18.19;37.09
44988;BME280;35735;52.226;21.254;2023-05-01T14:00:39;100592.94;;;18.17;38.42
44988;BME280;35735;52.226;21.254;2023-05-01T14:05:40;100581.25;;;18.11;36.16
44988;BME280;35735;52.226;21.254;2023-05-01T14:10:40;100573.94;;;18.12;37.41
44988;BME280;35735;52.226;21.254;2023-05-01T14:15:41;100576.81;;;18.07;38.17
44988;BME280;35735;52.226;21.254;2023-05-01T14:20:44;100565.28;;;17.98;38.50
44988;BME280;35735;52.226;21.254;2023-05-01T14:25:47;100553.47;;;17.95;37.50
44988;BME280;35735;52.226;21.254;2023-05-01T14:30:48;100554.50;;;17.91;38.16
44988;BME280;35735;52.226;21.254;2023-05-01T14:35:50;100545.63;;;17.82;38.41
44988;BME280;35735;52.226;21.254;2023-05-01T14:40:52;100543.22;;;17.71;38.82
44988;BME280;35735;52.226;21.254;2023-05-01T14:45:54;100551.44;;;17.69;39.00
44988;BME280;35735;52.226;21.254;2023-05-01T14:50:54;100536.31;;;17.57;40.17
44988;BME280;35735;52.226;21.254;2023-05-01T14:55:55;100532.69;;;17.55;40.40
44988;BME280;35735;52.226;21.254;2023-05-01T15:00:55;100524.50;;;17.55;39.88
44988;BME280;35735;52.226;21.254;2023-05-01T15:05:56;100525.56;;;17.51;39.28
44988;BME280;35735;52.226;21.254;2023-05-01T15:10:57;100515.56;;;17.50;38.91
44988;BME280;35735;52.226;21.254;2023-05-01T15:15:58;100524.59;;;17.52;38.36
44988;BME280;35735;52.226;21.254;2023-05-01T15:20:58;100522.75;;;17.54;38.31
44988;BME280;35735;52.226;21.254;2023-05-01T15:25:59;100516.31;;;17.55;38.24
44988;BME280;35735;52.226;21.254;2023-05-01T15:30:59;100501.91;;;17.50;38.46
44988;BME280;35735;52.226;21.254;2023-05-01T15:36:00;100501.16;;;17.45;39.01
44988;BME280;35735;52.226;21.254;2023-05-01T15:41:00;100496.72;;;17.41;39.34
44988;BME280;35735;52.226;21.254;2023-05-01T15:46:01;100485.84;;;17.39;38.52
44988;BME280;35735;52.226;21.254;2023-05-01T15:51:02;100477.78;;;17.35;39.60
44988;BME280;35735;52.226;21.254;2023-05-01T15:56:03;100470.63;;;17.31;39.88
44988;BME280;35735;52.226;21.254;2023-05-01T16:01:04;100469.75;;;17.29;40.54
44988;BME280;35735;52.226;21.254;2023-05-01T16:06:07;100465.34;;;17.25;41.22
44988;BME280;35735;52.226;21.254;2023-05-01T16:11:08;100472.75;;;17.19;41.65
44988;BME280;35735;52.226;21.254;2023-05-01T16:16:10;100480.00;;;17.19;42.10
44988;BME280;35735;52.226;21.254;2023-05-01T16:21:14;100471.06;;;17.14;42.47
44988;BME280;35735;52.226;21.254;2023-05-01T16:26:20;100467.41;;;17.15;43.13
44988;BME280;35735;52.226;21.254;2023-05-01T16:31:22;100461.09;;;17.13;44.00
44988;BME280;35735;52.226;21.254;2023-05-01T16:36:23;100477.53;;;17.10;44.54
44988;BME280;35735;52.226;21.254;2023-05-01T16:41:23;100471.19;;;17.09;44.61
44988;BME280;35735;52.226;21.254;2023-05-01T16:46:24;100462.06;;;17.10;45.11
44988;BME280;35735;52.226;21.254;2023-05-01T16:51:24;100459.59;;;17.01;45.36
44988;BME280;35735;52.226;21.254;2023-05-01T16:56:25;100442.47;;;16.96;45.90
44988;BME280;35735;52.226;21.254;2023-05-01T17:01:25;100451.66;;;16.92;46.41
44988;BME280;35735;52.226;21.254;2023-05-01T17:06:26;100446.63;;;16.73;46.82
44988;BME280;35735;52.226;21.254;2023-05-01T17:11:27;100442.41;;;16.60;46.90
44988;BME280;35735;52.226;21.254;2023-05-01T17:16:27;100447.28;;;16.45;47.80
44988;BME280;35735;52.226;21.254;2023-05-01T17:21:28;100447.66;;;16.30;48.39
44988;BME280;35735;52.226;21.254;2023-05-01T17:26:28;100443.50;;;16.14;48.64
44988;BME280;35735;52.226;21.254;2023-05-01T17:31:29;100441.91;;;16.03;48.83
44988;BME280;35735;52.226;21.254;2023-05-01T17:36:29;100447.69;;;15.88;48.62
44988;BME280;35735;52.226;21.254;2023-05-01T17:41:30;100452.50;;;15.73;48.70
44988;BME280;35735;52.226;21.254;2023-05-01T17:46:30;100447.31;;;15.61;48.76
44988;BME280;35735;52.226;21.254;2023-05-01T17:51:31;100449.28;;;15.53;49.00
44988;BME280;35735;52.226;21.254;2023-05-01T17:56:32;100442.97;;;15.51;49.14
44988;BME280;35735;52.226;21.254;2023-05-01T18:01:33;100440.31;;;15.48;49.39
44988;BME280;35735;52.226;21.254;2023-05-01T18:06:33;100452.19;;;15.44;49.98
44988;BME280;35735;52.226;21.254;2023-05-01T18:11:34;100457.00;;;15.29;50.19
44988;BME280;35735;52.226;21.254;2023-05-01T18:16:34;100449.06;;;15.18;50.25
44988;BME280;35735;52.226;21.254;2023-05-01T18:21:35;100449.16;;;15.12;51.00
44988;BME280;35735;52.226;21.254;2023-05-01T18:26:36;100453.91;;;14.99;51.06
44988;BME280;35735;52.226;21.254;2023-05-01T18:31:36;100455.88;;;14.90;51.90
44988;BME280;35735;52.226;21.254;2023-05-01T18:36:37;100458.03;;;14.71;53.03
44988;BME280;35735;52.226;21.254;2023-05-01T18:41:37;100454.75;;;14.47;54.88
44988;BME280;35735;52.226;21.254;2023-05-01T18:46:38;100454.13;;;14.28;55.74
44988;BME280;35735;52.226;21.254;2023-05-01T18:51:38;100449.88;;;14.10;56.13
44988;BME280;35735;52.226;21.254;2023-05-01T18:56:39;100448.28;;;13.94;56.17
44988;BME280;35735;52.226;21.254;2023-05-01T19:01:40;100450.31;;;13.76;56.96
44988;BME280;35735;52.226;21.254;2023-05-01T19:06:40;100457.72;;;13.62;57.61
44988;BME280;35735;52.226;21.254;2023-05-01T19:11:41;100448.75;;;13.57;58.35
44988;BME280;35735;52.226;21.254;2023-05-01T19:16:41;100455.25;;;13.43;59.04
44988;BME280;35735;52.226;21.254;2023-05-01T19:21:42;100442.72;;;13.28;59.58
44988;BME280;35735;52.226;21.254;2023-05-01T19:26:42;100438.25;;;13.20;60.41
44988;BME280;35735;52.226;21.254;2023-05-01T19:31:43;100429.34;;;13.11;60.90
44988;BME280;35735;52.226;21.254;2023-05-01T19:36:43;100428.53;;;13.03;61.51
44988;BME280;35735;52.226;21.254;2023-05-01T19:41:44;100431.34;;;12.88;61.60
44988;BME280;35735;52.226;21.254;2023-05-01T19:46:44;100413.34;;;12.84;62.31
44988;BME280;35735;52.226;21.254;2023-05-01T19:51:45;100421.50;;;12.81;62.63
44988;BME280;35735;52.226;21.254;2023-05-01T19:56:45;100417.06;;;12.72;63.23
44988;BME280;35735;52.226;21.254;2023-05-01T20:01:46;100404.56;;;12.58;63.50
44988;BME280;35735;52.226;21.254;2023-05-01T20:06:46;100406.44;;;12.46;64.07
44988;BME280;35735;52.226;21.254;2023-05-01T20:11:47;100402.03;;;12.35;64.37
44988;BME280;35735;52.226;21.254;2023-05-01T20:16:48;100401.16;;;12.30;64.67
44988;BME280;35735;52.226;21.254;2023-05-01T20:21:48;100396.72;;;12.21;64.94
44988;BME280;35735;52.226;21.254;2023-05-01T20:26:49;100404.88;;;12.14;65.53
44988;BME280;35735;52.226;21.254;2023-05-01T20:31:50;100404.03;;;12.07;65.62
44988;BME280;35735;52.226;21.254;2023-05-01T20:36:50;100395.94;;;12.02;65.76
44988;BME280;35735;52.226;21.254;2023-05-01T20:41:56;100399.59;;;11.95;66.04
44988;BME280;35735;52.226;21.254;2023-05-01T20:46:57;100404.09;;;11.89;66.33
44988;BME280;35735;52.226;21.254;2023-05-01T20:51:57;100399.66;;;11.80;66.87
44988;BME280;35735;52.226;21.254;2023-05-01T20:56:58;100399.66;;;11.77;67.26
44988;BME280;35735;52.226;21.254;2023-05-01T21:02:02;100409.59;;;11.72;67.33
44988;BME280;35735;52.226;21.254;2023-05-01T21:07:03;100416.84;;;11.62;68.15
44988;BME280;35735;52.226;21.254;2023-05-01T21:12:06;100418.69;;;11.50;68.64
44988;BME280;35735;52.226;21.254;2023-05-01T21:17:09;100412.41;;;11.41;68.93
44988;BME280;35735;52.226;21.254;2023-05-01T21:22:16;100412.47;;;11.35;69.13
44988;BME280;35735;52.226;21.254;2023-05-01T21:27:20;100405.31;;;11.18;69.31
44988;BME280;35735;52.226;21.254;2023-05-01T21:32:30;100406.19;;;11.17;69.87
44988;BME280;35735;52.226;21.254;2023-05-01T21:37:32;100409.81;;;11.10;70.55
44988;BME280;35735;52.226;21.254;2023-05-01T21:42:35;100404.44;;;11.05;70.72
44988;BME280;35735;52.226;21.254;2023-05-01T21:47:38;100401.75;;;10.96;71.21
44988;BME280;35735;52.226;21.254;2023-05-01T21:52:44;100390.06;;;10.89;71.91
44988;BME280;35735;52.226;21.254;2023-05-01T21:57:45;100401.75;;;10.81;72.14
44988;BME280;35735;52.226;21.254;2023-05-01T22:02:47;100401.78;;;10.70;72.57
44988;BME280;35735;52.226;21.254;2023-05-01T22:07:49;100403.59;;;10.66;73.17
44988;BME280;35735;52.226;21.254;2023-05-01T22:12:50;100397.31;;;10.58;73.70
44988;BME280;35735;52.226;21.254;2023-05-01T22:17:50;100391.00;;;10.45;74.11
44988;BME280;35735;52.226;21.254;2023-05-01T22:22:51;100378.41;;;10.38;74.80
44988;BME280;35735;52.226;21.254;2023-05-01T22:27:52;100383.78;;;10.26;75.26
44988;BME280;35735;52.226;21.254;2023-05-01T22:32:52;100379.25;;;10.20;75.20
44988;BME280;35735;52.226;21.254;2023-05-01T22:37:53;100383.75;;;10.13;75.76
44988;BME280;35735;52.226;21.254;2023-05-01T22:42:53;100379.25;;;10.03;76.26
44988;BME280;35735;52.226;21.254;2023-05-01T22:47:54;100377.44;;;9.93;76.70
44988;BME280;35735;52.226;21.254;2023-05-01T22:52:54;100381.00;;;9.87;77.11
44988;BME280;35735;52.226;21.254;2023-05-01T22:57:55;100372.00;;;9.80;77.05
44988;BME280;35735;52.226;21.254;2023-05-01T23:02:55;100363.91;;;9.71;77.43
44988;BME280;35735;52.226;21.254;2023-05-01T23:07:56;100359.37;;;9.56;78.08
44988;BME280;35735;52.226;21.254;2023-05-01T23:12:56;100363.84;;;9.53;78.48
44988;BME280;35735;52.226;21.254;2023-05-01T23:17:57;100352.19;;;9.51;78.65
44988;BME280;35735;52.226;21.254;2023-05-01T23:22:57;100353.94;;;9.47;78.71
44988;BME280;35735;52.226;21.254;2023-05-01T23:27:58;100340.47;;;9.39;79.12
44988;BME280;35735;52.226;21.254;2023-05-01T23:32:59;100344.03;;;9.32;79.56
44988;BME280;35735;52.226;21.254;2023-05-01T23:37:59;100346.69;;;9.26;79.91
44988;BME280;35735;52.226;21.254;2023-05-01T23:43:00;100337.69;;;9.21;80.31
44988;BME280;35735;52.226;21.254;2023-05-01T23:48:00;100336.75;;;9.09;80.20
44988;BME280;35735;52.226;21.254;2023-05-01T23:53:05;100337.59;;;8.99;80.60
44988;BME280;35735;52.226;21.254;2023-05-01T23:58:06;100329.47;;;8.93;81.00
